Eurogracht — PDZR — position and weather

sailwx.info

Track history (hours):
 
Tides and Currents Weather Stations Pressure Air Temp Water Temp Dewpoint Dewpoint Depression Visibility Wind Speed Wind Dir Waves Ship Positions

Eurogracht

Last reported at 2018-Jun-21 17:33 UTC. Time now 2018-Jun-21 22:03 UTC.
Position N 42°28' E 034°26'.

Length 136 m; beam 19 m; draft 9 m.

Type: Cargo ship. MMSI: 246321000.

Date/timePositionNaut miles runAvg speedWind from/ knotsBaromVisibWave heightAir tempDewpointWater temp
2018-Jun-21 17:33N 42°28' E 034°26'114.1
2018-Jun-21 17:28N 42°28' E 034°25'714.2
2018-Jun-21 17:00N 42°29' E 034°16'713.8
2018-Jun-21 16:30N 42°30' E 034°07'713.8
2018-Jun-21 16:00N 42°32' E 033°58'713.8
2018-Jun-21 15:30N 42°33' E 033°48'713.7
2018-Jun-21 15:00N 42°34' E 033°39'713.6
2018-Jun-21 14:30N 42°36' E 033°30'713.5
2018-Jun-21 14:00N 42°37' E 033°21'713.5
2018-Jun-21 13:30N 42°39' E 033°12'813.4
2018-Jun-21 12:52N 42°40' E 033°01'513.5
2018-Jun-21 12:30N 42°41' E 032°54'713.6
2018-Jun-21 12:00N 42°43' E 032°45'713.8
2018-Jun-21 11:29N 42°44' E 032°36'713.7
2018-Jun-21 11:00N 42°46' E 032°27'713.7
2018-Jun-21 10:30N 42°47' E 032°18'714.0
2018-Jun-21 10:00N 42°48' E 032°09'714.0
2018-Jun-21 09:28N 42°50' E 031°59'612.9
2018-Jun-21 09:00N 42°52' E 031°51'510.3
2018-Jun-21 08:30N 42°51' E 031°44'510.3
2018-Jun-21 08:00N 42°51' E 031°37'7311.4
2018-Jun-21 01:36N 42°40' E 029°59'311.4
2018-Jun-21 01:22N 42°40' E 029°55'511.4
2018-Jun-21 00:56N 42°39' E 029°48'511.5
2018-Jun-21 00:27N 42°38' E 029°41'511.4
2018-Jun-20 23:59N 42°37' E 029°34'511.3
2018-Jun-20 23:30N 42°36' E 029°27'611.2
2018-Jun-20 23:00N 42°35' E 029°19'611.2
2018-Jun-20 22:30N 42°35' E 029°12'611.3
2018-Jun-20 22:00N 42°34' E 029°04'611.2
2018-Jun-20 21:30N 42°33' E 028°57'611.2
2018-Jun-20 21:00N 42°32' E 028°49'611.1
2018-Jun-20 20:30N 42°31' E 028°42'611.1
2018-Jun-20 20:00N 42°30' E 028°34'611.1
2018-Jun-20 19:31N 42°29' E 028°27'610.9
2018-Jun-20 19:00N 42°28' E 028°19'611.1
2018-Jun-20 18:30N 42°28' E 028°12'611.6
2018-Jun-20 18:00N 42°28' E 028°04'511.0
2018-Jun-20 17:30N 42°28' E 027°57'510.0
2018-Jun-20 17:00N 42°28' E 027°50'  
2018-Jun-15 21:39N 42°29' E 027°28'0 0.0
2018-Jun-15 21:27N 42°29' E 027°28'0 0.0
2018-Jun-15 00:29N 42°29' E 027°28'0 0.0
2018-Jun-14 23:59N 42°29' E 027°28'0 0.0
2018-Jun-14 23:26N 42°29' E 027°28'0 0.0
2018-Jun-14 22:17N 42°29' E 027°28'0 0.0
2018-Jun-14 21:41N 42°29' E 027°28'0 0.0
2018-Jun-14 21:26N 42°29' E 027°28'0 0.0
2018-Jun-14 20:41N 42°29' E 027°28'0 0.0
2018-Jun-14 19:56N 42°29' E 027°28'0 0.0
2018-Jun-14 19:26N 42°29' E 027°28'0 0.0
2018-Jun-14 18:58N 42°29' E 027°28'0 0.0
2018-Jun-13 20:37N 42°29' E 027°28'0 0.0
2018-Jun-13 20:25N 42°29' E 027°28'  
Track history (hours):
 
Tides and Currents Weather Stations Pressure Air Temp Water Temp Dewpoint Dewpoint Depression Visibility Wind Speed Wind Dir Waves Ship Positions

Eurogracht

Last reported at 2018-Jun-21 17:33 UTC. Time now 2018-Jun-21 22:03 UTC.
Position N 42°28' E 034°26'.

Length 136 m; beam 19 m; draft 9 m.

Type: Cargo ship. MMSI: 246321000.

Date/timePositionNaut miles runAvg speedWind from/ knotsBaromVisibWave heightAir tempDewpointWater temp
2018-Jun-21 17:33N 42°28' E 034°26'114.1
2018-Jun-21 17:28N 42°28' E 034°25'714.2
2018-Jun-21 17:00N 42°29' E 034°16'713.8
2018-Jun-21 16:30N 42°30' E 034°07'713.8
2018-Jun-21 16:00N 42°32' E 033°58'713.8
2018-Jun-21 15:30N 42°33' E 033°48'713.7
2018-Jun-21 15:00N 42°34' E 033°39'713.6
2018-Jun-21 14:30N 42°36' E 033°30'713.5
2018-Jun-21 14:00N 42°37' E 033°21'713.5
2018-Jun-21 13:30N 42°39' E 033°12'813.4
2018-Jun-21 12:52N 42°40' E 033°01'513.5
2018-Jun-21 12:30N 42°41' E 032°54'713.6
2018-Jun-21 12:00N 42°43' E 032°45'713.8
2018-Jun-21 11:29N 42°44' E 032°36'713.7
2018-Jun-21 11:00N 42°46' E 032°27'713.7
2018-Jun-21 10:30N 42°47' E 032°18'714.0
2018-Jun-21 10:00N 42°48' E 032°09'714.0
2018-Jun-21 09:28N 42°50' E 031°59'612.9
2018-Jun-21 09:00N 42°52' E 031°51'510.3
2018-Jun-21 08:30N 42°51' E 031°44'510.3
2018-Jun-21 08:00N 42°51' E 031°37'7311.4
2018-Jun-21 01:36N 42°40' E 029°59'311.4
2018-Jun-21 01:22N 42°40' E 029°55'511.4
2018-Jun-21 00:56N 42°39' E 029°48'511.5
2018-Jun-21 00:27N 42°38' E 029°41'511.4
2018-Jun-20 23:59N 42°37' E 029°34'511.3
2018-Jun-20 23:30N 42°36' E 029°27'611.2
2018-Jun-20 23:00N 42°35' E 029°19'611.2
2018-Jun-20 22:30N 42°35' E 029°12'611.3
2018-Jun-20 22:00N 42°34' E 029°04'611.2
2018-Jun-20 21:30N 42°33' E 028°57'611.2
2018-Jun-20 21:00N 42°32' E 028°49'611.1
2018-Jun-20 20:30N 42°31' E 028°42'611.1
2018-Jun-20 20:00N 42°30' E 028°34'611.1
2018-Jun-20 19:31N 42°29' E 028°27'610.9
2018-Jun-20 19:00N 42°28' E 028°19'611.1
2018-Jun-20 18:30N 42°28' E 028°12'611.6
2018-Jun-20 18:00N 42°28' E 028°04'511.0
2018-Jun-20 17:30N 42°28' E 027°57'510.0
2018-Jun-20 17:00N 42°28' E 027°50'  
2018-Jun-15 21:39N 42°29' E 027°28'0 0.0
2018-Jun-15 21:27N 42°29' E 027°28'0 0.0
2018-Jun-15 00:29N 42°29' E 027°28'0 0.0
2018-Jun-14 23:59N 42°29' E 027°28'0 0.0
2018-Jun-14 23:26N 42°29' E 027°28'0 0.0
2018-Jun-14 22:17N 42°29' E 027°28'0 0.0
2018-Jun-14 21:41N 42°29' E 027°28'0 0.0
2018-Jun-14 21:26N 42°29' E 027°28'0 0.0
2018-Jun-14 20:41N 42°29' E 027°28'0 0.0
2018-Jun-14 19:56N 42°29' E 027°28'0 0.0
2018-Jun-14 19:26N 42°29' E 027°28'0 0.0
2018-Jun-14 18:58N 42°29' E 027°28'0 0.0
2018-Jun-13 20:37N 42°29' E 027°28'0 0.0
2018-Jun-13 20:25N 42°29' E 027°28'  

Dump ship's entire track history